createdAt,value
2019-05-03T00:00:56.223Z,28.20
2019-05-03T00:02:21.885Z,23.62
2019-05-03T00:03:22.933Z,26.42
2019-05-03T00:04:23.957Z,23.77
2019-05-03T00:05:32.705Z,27.07
2019-05-03T00:06:33.920Z,25.00
2019-05-03T00:07:34.943Z,26.15
2019-05-03T00:08:35.960Z,28.55
2019-05-03T00:09:37.079Z,27.98
2019-05-03T00:10:38.200Z,28.00
2019-05-03T00:11:39.219Z,28.90
2019-05-03T00:12:42.073Z,23.07
2019-05-03T00:13:43.157Z,26.80
2019-05-03T00:14:46.100Z,25.85
2019-05-03T00:15:54.932Z,28.12
2019-05-03T00:16:55.953Z,24.85
2019-05-03T00:17:56.976Z,26.82
2019-05-03T00:19:00.938Z,28.10
2019-05-03T00:20:02.301Z,23.92
2019-05-03T00:21:03.559Z,29.12
2019-05-03T00:22:04.568Z,26.00
2019-05-03T00:23:05.601Z,27.02
2019-05-03T00:24:06.608Z,29.77
2019-05-03T00:25:08.561Z,35.28
2019-05-03T00:26:09.664Z,30.27
2019-05-03T00:27:12.312Z,25.65
2019-05-03T00:28:13.600Z,25.52
2019-05-03T00:29:14.609Z,26.45
2019-05-03T00:30:15.636Z,24.52
2019-05-03T00:31:16.654Z,27.15
2019-05-03T00:32:17.672Z,24.82
2019-05-03T00:33:18.697Z,23.00
2019-05-03T00:34:37.938Z,25.32
2019-05-03T00:35:43.638Z,22.22
2019-05-03T00:36:49.539Z,25.48
2019-05-03T00:37:54.992Z,25.85
2019-05-03T00:38:57.904Z,27.90
2019-05-03T00:40:06.970Z,28.10
2019-05-03T00:41:08.000Z,31.55
2019-05-03T00:42:09.012Z,28.42
2019-05-03T00:43:11.574Z,29.77
2019-05-03T00:44:12.761Z,22.82
2019-05-03T00:45:13.885Z,26.57
2019-05-03T00:46:14.998Z,29.85
2019-05-03T00:47:16.016Z,24.37
2019-05-03T00:48:17.040Z,28.95
2019-05-03T00:49:18.047Z,26.55
2019-05-03T00:50:19.188Z,24.80
2019-05-03T00:51:20.208Z,28.45
2019-05-03T00:52:22.378Z,31.45
2019-05-03T00:53:23.557Z,28.75
2019-05-03T00:54:24.580Z,26.48
2019-05-03T00:55:25.612Z,28.47
2019-05-03T00:56:26.632Z,27.93
2019-05-03T00:57:28.948Z,27.00
2019-05-03T00:58:31.721Z,26.23
2019-05-03T00:59:32.876Z,25.35
2019-05-03T01:00:33.921Z,28.60
2019-05-03T01:01:34.936Z,26.42
2019-05-03T01:02:35.952Z,29.70
2019-05-03T01:03:36.967Z,20.48
2019-05-03T01:04:37.994Z,27.52
2019-05-03T01:05:39.012Z,27.25
2019-05-03T01:06:42.244Z,32.50
2019-05-03T01:07:43.158Z,24.43
2019-05-03T01:08:44.176Z,29.72
2019-05-03T01:09:45.200Z,24.32
2019-05-03T01:10:46.229Z,29.27
2019-05-03T01:11:47.253Z,27.05
2019-05-03T01:12:48.273Z,30.05
2019-05-03T01:13:49.380Z,28.60
2019-05-03T01:14:51.933Z,29.07
2019-05-03T01:15:54.854Z,28.73
2019-05-03T01:16:55.868Z,26.37
2019-05-03T01:17:56.992Z,30.30
2019-05-03T01:18:58.018Z,29.12
2019-05-03T01:19:59.040Z,26.20
2019-05-03T01:21:01.964Z,21.52
2019-05-03T01:22:03.204Z,27.98
2019-05-03T01:23:04.220Z,27.95
2019-05-03T01:24:05.336Z,24.72
2019-05-03T01:25:06.565Z,30.17
2019-05-03T01:26:07.588Z,27.95
2019-05-03T01:27:08.608Z,25.12
2019-05-03T01:28:09.624Z,25.12
2019-05-03T01:29:12.146Z,30.27
2019-05-03T01:30:13.671Z,32.33
2019-05-03T01:31:14.797Z,27.20
2019-05-03T01:32:15.821Z,36.00
2019-05-03T01:33:16.864Z,27.70
2019-05-03T01:34:17.884Z,29.40
2019-05-03T01:35:18.897Z,27.15
2019-05-03T01:36:20.044Z,35.78
2019-05-03T01:37:22.629Z,24.87
2019-05-03T01:38:23.869Z,26.87
2019-05-03T01:39:24.897Z,28.25
2019-05-03T01:40:25.928Z,31.80
2019-05-03T01:41:26.965Z,26.45
2019-05-03T01:42:27.988Z,28.62
2019-05-03T01:43:29.012Z,26.93
2019-05-03T01:44:30.040Z,27.95
2019-05-03T01:45:31.873Z,26.02
2019-05-03T01:46:33.093Z,28.70
2019-05-03T01:47:54.281Z,22.93
2019-05-03T01:48:57.193Z,24.87
2019-05-03T01:50:05.916Z,27.27
2019-05-03T01:51:25.483Z,24.98
2019-05-03T01:52:28.404Z,28.95
2019-05-03T01:53:32.245Z,29.90
2019-05-03T01:54:33.361Z,24.15
2019-05-03T01:55:52.709Z,26.40
2019-05-03T01:56:58.898Z,28.75
2019-05-03T01:57:56.789Z,30.55
2019-05-03T01:58:57.810Z,28.02
2019-05-03T01:59:58.850Z,30.02
2019-05-03T02:01:04.553Z,26.50
2019-05-03T02:02:10.242Z,28.62
2019-05-03T02:03:29.865Z,28.77
2019-05-03T02:04:44.874Z,24.18
2019-05-03T02:05:52.057Z,27.93
2019-05-03T02:06:53.197Z,26.93
2019-05-03T02:07:54.204Z,28.95
2019-05-03T02:08:55.220Z,28.05
2019-05-03T02:09:56.240Z,30.17
2019-05-03T02:10:57.260Z,27.60
2019-05-03T02:11:58.280Z,24.82
2019-05-03T02:12:59.308Z,28.67
2019-05-03T02:14:01.746Z,25.37
2019-05-03T02:15:05.477Z,25.72
2019-05-03T02:16:06.496Z,26.05
2019-05-03T02:17:07.532Z,26.68
2019-05-03T02:18:08.557Z,24.47
2019-05-03T02:19:09.595Z,28.23
2019-05-03T02:20:12.552Z,22.15
2019-05-03T02:21:13.634Z,22.95
2019-05-03T02:22:14.657Z,30.30
2019-05-03T02:23:15.669Z,24.67
2019-05-03T02:24:16.690Z,26.40
2019-05-03T02:25:17.707Z,25.37
2019-05-03T02:26:18.746Z,21.77
2019-05-03T02:27:19.773Z,20.20
2019-05-03T02:28:22.046Z,26.37
2019-05-03T02:29:23.205Z,23.32
2019-05-03T02:30:25.079Z,29.57
2019-05-03T02:31:26.219Z,26.50
2019-05-03T02:32:27.249Z,27.98
2019-05-03T02:33:28.264Z,21.90
2019-05-03T02:34:29.280Z,24.75
2019-05-03T02:35:33.170Z,22.90
2019-05-03T02:36:33.827Z,28.92
2019-05-03T02:37:34.991Z,27.15
2019-05-03T02:38:36.017Z,24.92
2019-05-03T02:39:37.042Z,23.90
2019-05-03T02:40:38.065Z,24.90
2019-05-03T02:41:39.095Z,28.70
2019-05-03T02:42:42.156Z,22.15
2019-05-03T02:43:45.448Z,27.42
2019-05-03T02:44:46.722Z,27.93
2019-05-03T02:45:52.445Z,26.15
2019-05-03T02:46:56.290Z,22.93
2019-05-03T02:48:01.938Z,26.48
2019-05-03T02:49:06.373Z,25.08
2019-05-03T02:50:09.673Z,22.67
2019-05-03T02:51:10.684Z,21.73
2019-05-03T02:52:15.115Z,29.10
2019-05-03T02:53:16.231Z,28.47
2019-05-03T02:54:17.260Z,21.90
2019-05-03T02:55:18.377Z,21.30
2019-05-03T02:56:22.459Z,22.62
2019-05-03T02:57:22.433Z,26.10
2019-05-03T02:58:25.310Z,25.30
2019-05-03T02:59:26.622Z,24.98
2019-05-03T03:00:50.053Z,26.93
2019-05-03T03:01:51.779Z,25.00
2019-05-03T03:02:52.901Z,26.90
2019-05-03T03:03:55.992Z,25.65
2019-05-03T03:04:57.633Z,23.07
2019-05-03T03:06:00.466Z,21.65
2019-05-03T03:07:02.270Z,23.90
2019-05-03T03:08:05.877Z,26.27
2019-05-03T03:09:06.687Z,25.20
2019-05-03T03:10:08.235Z,19.73
2019-05-03T03:11:09.243Z,22.45
2019-05-03T03:12:11.477Z,24.60
2019-05-03T03:13:12.711Z,24.45
2019-05-03T03:14:16.979Z,28.02
2019-05-03T03:15:18.049Z,25.00
2019-05-03T03:16:20.836Z,30.17
2019-05-03T03:17:25.632Z,27.17
2019-05-03T03:18:31.196Z,28.40
2019-05-03T03:19:35.271Z,26.48
2019-05-03T03:20:36.993Z,24.15
2019-05-03T03:21:42.829Z,23.27
2019-05-03T03:22:47.333Z,22.82
2019-05-03T03:24:01.497Z,20.88
2019-05-03T03:25:05.624Z,26.73
2019-05-03T03:26:08.649Z,22.10
2019-05-03T03:27:16.093Z,20.52
2019-05-03T03:28:19.837Z,24.92
2019-05-03T03:29:25.243Z,25.15
2019-05-03T03:30:37.888Z,23.20
2019-05-03T03:31:57.857Z,24.52
2019-05-03T03:33:01.790Z,25.57
2019-05-03T03:34:08.224Z,22.20
2019-05-03T03:35:19.664Z,24.95
2019-05-03T03:36:50.323Z,27.80
2019-05-03T03:37:19.394Z,25.32
2019-05-03T03:38:20.524Z,25.43
2019-05-03T03:39:21.880Z,24.60
2019-05-03T03:40:25.483Z,26.45
2019-05-03T03:41:28.417Z,30.65
2019-05-03T03:42:29.433Z,25.45
2019-05-03T03:43:31.464Z,23.83
2019-05-03T03:44:36.020Z,26.00
2019-05-03T03:45:37.614Z,29.12
2019-05-03T03:46:39.966Z,27.87
2019-05-03T03:47:46.237Z,26.90
2019-05-03T03:48:46.416Z,25.37
2019-05-03T03:49:49.338Z,27.95
2019-05-03T03:50:52.159Z,24.12
2019-05-03T03:51:56.092Z,23.42
2019-05-03T03:52:58.985Z,29.27
2019-05-03T03:54:00.515Z,30.25
2019-05-03T03:55:02.833Z,32.83
2019-05-03T03:56:05.665Z,28.98
2019-05-03T03:57:08.494Z,23.15
2019-05-03T03:58:09.999Z,26.00
2019-05-03T03:59:11.040Z,27.82
2019-05-03T04:00:16.061Z,26.40
2019-05-03T04:01:16.584Z,23.32
2019-05-03T04:02:18.006Z,30.85
2019-05-03T04:03:19.613Z,31.48
2019-05-03T04:04:21.935Z,24.10
2019-05-03T04:05:25.379Z,26.23
2019-05-03T04:06:41.328Z,28.30
2019-05-03T04:07:42.343Z,27.70
2019-05-03T04:08:45.359Z,26.75
2019-05-03T04:09:46.308Z,30.02
2019-05-03T04:10:47.526Z,22.65
2019-05-03T04:11:49.924Z,25.65
2019-05-03T04:12:50.940Z,26.23
2019-05-03T04:13:52.372Z,29.87
2019-05-03T04:15:00.869Z,25.12
2019-05-03T04:16:05.584Z,25.50
2019-05-03T04:17:08.811Z,23.07
2019-05-03T04:18:16.391Z,26.12
2019-05-03T04:19:19.833Z,24.95
2019-05-03T04:20:25.399Z,28.45
2019-05-03T04:21:25.902Z,29.98
2019-05-03T04:22:27.006Z,24.27
2019-05-03T04:23:30.854Z,30.10
2019-05-03T04:24:35.005Z,28.38
2019-05-03T04:25:35.946Z,30.97
2019-05-03T04:26:37.037Z,24.23
2019-05-03T04:27:38.056Z,25.17
2019-05-03T04:28:39.317Z,25.27
2019-05-03T04:29:40.653Z,30.85
2019-05-03T04:30:41.765Z,28.15
2019-05-03T04:31:45.599Z,28.52
2019-05-03T04:32:46.047Z,25.45
2019-05-03T04:33:47.055Z,26.48
2019-05-03T04:34:48.382Z,29.52
2019-05-03T04:35:49.417Z,26.42
2019-05-03T04:36:50.424Z,27.15
2019-05-03T04:37:51.452Z,27.90
2019-05-03T04:38:52.478Z,24.95
2019-05-03T04:39:56.026Z,29.92
2019-05-03T04:40:56.529Z,27.77
2019-05-03T04:41:57.630Z,28.25
2019-05-03T04:42:58.846Z,32.40
2019-05-03T04:44:00.682Z,30.35
2019-05-03T04:45:02.003Z,27.60
2019-05-03T04:46:06.679Z,25.85
2019-05-03T04:47:07.958Z,24.80
2019-05-03T04:48:08.973Z,24.95
2019-05-03T04:49:09.992Z,23.52
2019-05-03T04:50:11.641Z,23.77
2019-05-03T04:51:12.665Z,26.57
2019-05-03T04:52:16.558Z,24.85
2019-05-03T04:53:16.619Z,35.78
2019-05-03T04:54:25.027Z,28.77
2019-05-03T04:55:26.643Z,27.50
2019-05-03T04:56:28.212Z,25.55
2019-05-03T04:57:40.060Z,29.77
2019-05-03T04:58:32.141Z,24.37
2019-05-03T04:59:35.699Z,26.85
2019-05-03T05:00:36.249Z,28.52
2019-05-03T05:01:37.408Z,26.85
2019-05-03T05:02:38.422Z,32.67
2019-05-03T05:03:39.436Z,22.82
2019-05-03T05:04:40.448Z,31.65
2019-05-03T05:05:41.482Z,29.70
2019-05-03T05:06:44.950Z,31.55
2019-05-03T05:07:45.875Z,26.30
2019-05-03T05:08:47.052Z,28.67
2019-05-03T05:09:48.067Z,25.20
2019-05-03T05:10:49.092Z,28.70
2019-05-03T05:11:50.119Z,29.65
2019-05-03T05:12:51.237Z,25.48
2019-05-03T05:13:52.257Z,27.62
2019-05-03T05:14:56.096Z,32.95
2019-05-03T05:15:56.211Z,25.23
2019-05-03T05:16:57.234Z,33.30
2019-05-03T05:18:16.851Z,27.65
2019-05-03T05:19:25.800Z,28.98
2019-05-03T05:20:45.634Z,23.25
2019-05-03T05:21:48.584Z,27.48
2019-05-03T05:22:49.603Z,26.57
2019-05-03T05:24:01.204Z,26.40
2019-05-03T05:25:06.420Z,27.52
2019-05-03T05:26:18.513Z,23.87
2019-05-03T05:27:21.422Z,23.18
2019-05-03T05:28:24.966Z,25.65
2019-05-03T05:29:31.624Z,25.80
2019-05-03T05:30:32.754Z,24.23
2019-05-03T05:31:35.573Z,30.02
2019-05-03T05:32:36.705Z,23.32
2019-05-03T05:33:37.725Z,23.65
2019-05-03T05:34:38.762Z,26.57
2019-05-03T05:35:39.768Z,28.77
2019-05-03T05:36:40.896Z,29.77
2019-05-03T05:37:41.902Z,30.72
2019-05-03T05:38:44.906Z,31.10
2019-05-03T05:39:45.836Z,29.32
2019-05-03T05:40:47.172Z,27.70
2019-05-03T05:41:48.191Z,24.92
2019-05-03T05:42:49.204Z,21.45
2019-05-03T05:43:50.216Z,29.20
2019-05-03T05:44:51.234Z,25.62
2019-05-03T05:45:52.262Z,23.32
2019-05-03T05:47:04.702Z,25.48
2019-05-03T05:48:16.581Z,24.98
2019-05-03T05:49:36.517Z,19.42
2019-05-03T05:50:42.026Z,24.07
2019-05-03T05:51:44.443Z,23.75
2019-05-03T05:52:46.121Z,23.98
2019-05-03T05:53:47.154Z,27.93
2019-05-03T05:54:52.821Z,20.92
2019-05-03T05:55:58.501Z,22.42
2019-05-03T05:57:05.154Z,21.80
2019-05-03T05:58:09.025Z,20.35
2019-05-03T05:59:14.967Z,22.07
2019-05-03T06:00:25.603Z,21.50
2019-05-03T06:01:28.633Z,22.45
2019-05-03T06:02:29.689Z,19.05
2019-05-03T06:03:30.706Z,25.10
2019-05-03T06:04:31.728Z,24.00
2019-05-03T06:05:32.751Z,21.17
2019-05-03T06:06:38.198Z,23.57
2019-05-03T06:07:47.128Z,22.50
2019-05-03T06:08:50.120Z,21.95
2019-05-03T06:10:01.619Z,22.40
2019-05-03T06:11:22.581Z,20.62
2019-05-03T06:12:37.676Z,29.25
2019-05-03T06:13:44.433Z,23.95
2019-05-03T06:14:50.540Z,26.25
2019-05-03T06:16:02.316Z,20.08
2019-05-03T06:17:09.213Z,27.95
2019-05-03T06:18:21.081Z,22.50
2019-05-03T06:19:29.932Z,20.85
2019-05-03T06:20:38.517Z,21.48
2019-05-03T06:21:58.031Z,23.57
2019-05-03T06:23:00.945Z,25.08
2019-05-03T06:24:22.001Z,25.68
2019-05-03T06:25:26.598Z,22.60
2019-05-03T06:26:34.809Z,22.13
2019-05-03T06:27:37.684Z,24.30
2019-05-03T06:28:38.709Z,22.02
2019-05-03T06:29:40.125Z,23.90
2019-05-03T06:30:43.049Z,22.13
2019-05-03T06:31:57.848Z,22.82
2019-05-03T06:32:58.873Z,24.40
2019-05-03T06:33:59.884Z,20.60
2019-05-03T06:35:00.908Z,21.82
2019-05-03T06:36:01.920Z,21.20
2019-05-03T06:37:08.129Z,20.05
2019-05-03T06:38:09.145Z,20.62
2019-05-03T06:39:10.152Z,18.60
2019-05-03T06:40:12.172Z,21.62
2019-05-03T06:41:15.024Z,22.40
2019-05-03T06:42:19.329Z,31.05
2019-05-03T06:43:24.756Z,24.77
2019-05-03T06:44:28.724Z,19.25
2019-05-03T06:45:29.893Z,19.70
2019-05-03T06:46:45.505Z,23.65
2019-05-03T06:47:49.902Z,21.50
2019-05-03T06:48:49.918Z,21.27
2019-05-03T06:49:51.120Z,20.32
2019-05-03T06:50:52.173Z,20.30
2019-05-03T06:51:54.631Z,18.35
2019-05-03T06:52:59.827Z,18.65
2019-05-03T06:53:58.729Z,18.02
2019-05-03T06:55:00.282Z,15.93
2019-05-03T06:56:04.598Z,17.92
2019-05-03T06:57:09.487Z,20.25
2019-05-03T06:58:10.618Z,22.22
2019-05-03T06:59:22.320Z,16.67
2019-05-03T07:00:35.285Z,20.45
2019-05-03T07:01:39.016Z,17.02
2019-05-03T07:02:51.017Z,19.87
2019-05-03T07:03:54.861Z,16.25
2019-05-03T07:05:00.765Z,16.30
2019-05-03T07:06:33.583Z,16.57
2019-05-03T07:07:41.939Z,16.60
2019-05-03T07:08:56.752Z,17.85
2019-05-03T07:09:59.673Z,16.05
2019-05-03T07:11:04.751Z,17.10
2019-05-03T07:12:07.049Z,11.70
2019-05-03T07:13:09.018Z,15.78
2019-05-03T07:14:10.264Z,14.35
2019-05-03T07:15:11.286Z,18.42
2019-05-03T07:16:12.301Z,15.28
2019-05-03T07:17:14.476Z,16.07
2019-05-03T07:18:15.858Z,16.62
2019-05-03T07:19:16.892Z,17.92
2019-05-03T07:20:17.905Z,16.32
2019-05-03T07:21:18.920Z,21.75
2019-05-03T07:22:19.948Z,22.75
2019-05-03T07:23:20.973Z,16.48
2019-05-03T07:24:21.998Z,17.30
2019-05-03T07:25:25.321Z,16.17
2019-05-03T07:26:26.045Z,16.55
2019-05-03T07:27:27.085Z,13.08
2019-05-03T07:28:28.116Z,15.40
2019-05-03T07:29:29.148Z,15.70
2019-05-03T07:30:30.171Z,17.35
2019-05-03T07:31:31.194Z,13.62
2019-05-03T07:32:32.226Z,17.55
2019-05-03T07:33:34.827Z,13.18
2019-05-03T07:34:36.070Z,14.68
2019-05-03T07:35:37.084Z,12.68
2019-05-03T07:36:38.108Z,14.03
2019-05-03T07:37:39.152Z,14.75
2019-05-03T07:38:40.186Z,14.18
2019-05-03T07:39:41.291Z,13.18
2019-05-03T07:40:44.474Z,14.53
2019-05-03T07:41:45.217Z,17.25
2019-05-03T07:42:46.260Z,12.98
2019-05-03T07:43:47.284Z,14.73
2019-05-03T07:44:48.308Z,14.00
2019-05-03T07:45:49.332Z,16.52
2019-05-03T07:46:50.344Z,14.65
2019-05-03T07:47:51.375Z,16.77
2019-05-03T07:48:52.385Z,15.68
2019-05-03T07:49:54.704Z,15.93
2019-05-03T07:50:55.933Z,15.83
2019-05-03T07:51:57.014Z,19.05
2019-05-03T07:52:58.044Z,15.05
2019-05-03T07:53:59.076Z,15.85
2019-05-03T07:55:00.091Z,12.28
2019-05-03T07:56:05.840Z,15.13
2019-05-03T07:57:24.992Z,16.65
2019-05-03T07:58:28.144Z,18.05
2019-05-03T07:59:29.162Z,16.80
2019-05-03T08:00:30.197Z,13.65
2019-05-03T08:01:35.342Z,16.30
2019-05-03T08:02:36.178Z,14.20
2019-05-03T08:03:37.700Z,18.10
2019-05-03T08:04:38.722Z,19.10
2019-05-03T08:05:39.736Z,15.80
2019-05-03T08:06:40.752Z,19.05
2019-05-03T08:07:43.980Z,16.20
2019-05-03T08:08:45.456Z,15.75
2019-05-03T08:09:46.764Z,14.60
2019-05-03T08:10:48.138Z,20.17
2019-05-03T08:11:49.229Z,21.40
2019-05-03T08:12:50.357Z,16.95
2019-05-03T08:13:51.599Z,17.52
2019-05-03T08:14:52.616Z,17.52
2019-05-03T08:15:55.667Z,17.02
2019-05-03T08:16:56.593Z,19.25
2019-05-03T08:17:57.622Z,16.65
2019-05-03T08:18:58.767Z,19.00
2019-05-03T08:19:59.782Z,15.48
2019-05-03T08:21:00.869Z,17.62
2019-05-03T08:22:01.882Z,15.28
2019-05-03T08:23:05.117Z,16.25
2019-05-03T08:24:05.840Z,15.65
2019-05-03T08:25:06.951Z,17.12
2019-05-03T08:26:07.972Z,16.37
2019-05-03T08:27:08.980Z,19.50
2019-05-03T08:28:10.031Z,14.98
2019-05-03T08:29:16.046Z,15.25
2019-05-03T08:30:18.740Z,16.42
2019-05-03T08:31:30.533Z,16.75
2019-05-03T08:32:36.099Z,15.78
2019-05-03T08:33:56.817Z,15.75
2019-05-03T08:35:11.801Z,16.37
2019-05-03T08:36:12.812Z,19.73
2019-05-03T08:37:18.350Z,13.88
2019-05-03T08:38:19.380Z,14.78
2019-05-03T08:39:20.419Z,12.98
2019-05-03T08:40:24.544Z,17.25
2019-05-03T08:41:27.671Z,16.45
2019-05-03T08:42:28.712Z,18.02
2019-05-03T08:43:29.730Z,15.13
2019-05-03T08:44:30.757Z,15.32
2019-05-03T08:45:31.783Z,15.28
2019-05-03T08:46:32.799Z,18.60
2019-05-03T08:47:34.496Z,15.30
2019-05-03T08:48:35.660Z,13.48
2019-05-03T08:49:36.676Z,16.48
2019-05-03T08:50:37.689Z,13.25
2019-05-03T08:51:38.708Z,14.30
2019-05-03T08:52:39.725Z,17.62
2019-05-03T08:53:41.076Z,15.72
2019-05-03T08:54:42.110Z,15.55
2019-05-03T08:55:44.955Z,15.13
2019-05-03T08:56:46.068Z,17.85
2019-05-03T08:57:47.081Z,14.93
2019-05-03T08:58:48.110Z,15.25
2019-05-03T08:59:49.160Z,13.95
2019-05-03T09:00:50.239Z,13.55
2019-05-03T09:01:51.440Z,12.63
2019-05-03T09:02:52.469Z,13.50
2019-05-03T09:03:55.621Z,10.55
2019-05-03T09:04:57.047Z,9.85
2019-05-03T09:05:58.367Z,9.95
2019-05-03T09:06:59.558Z,14.10
2019-05-03T09:08:00.665Z,15.65
2019-05-03T09:09:01.769Z,16.48
2019-05-03T09:10:16.884Z,12.23
2019-05-03T09:11:16.988Z,12.25
2019-05-03T09:12:18.017Z,13.98
2019-05-03T09:13:20.531Z,15.68
2019-05-03T09:14:21.780Z,14.10
2019-05-03T09:15:24.533Z,15.32
2019-05-03T09:16:25.735Z,17.37
2019-05-03T09:17:26.756Z,14.75
2019-05-03T09:18:27.777Z,14.28
2019-05-03T09:19:28.795Z,14.35
2019-05-03T09:20:32.295Z,17.37
2019-05-03T09:21:34.627Z,15.45
2019-05-03T09:22:35.765Z,16.70
2019-05-03T09:23:36.781Z,18.00
2019-05-03T09:24:37.802Z,14.58
2019-05-03T09:25:38.938Z,14.47
2019-05-03T09:26:39.944Z,13.78
2019-05-03T09:27:41.069Z,15.03
2019-05-03T09:28:42.093Z,18.65
2019-05-03T09:29:44.037Z,16.95
2019-05-03T09:30:46.042Z,15.95
2019-05-03T09:31:47.063Z,14.33
2019-05-03T09:32:48.080Z,14.63
2019-05-03T09:33:49.112Z,15.90
2019-05-03T09:34:50.170Z,17.85
2019-05-03T09:35:51.208Z,13.60
2019-05-03T09:36:52.206Z,17.98
2019-05-03T09:37:55.460Z,11.45
2019-05-03T09:38:56.361Z,12.45
2019-05-03T09:39:57.369Z,15.65
2019-05-03T09:40:58.406Z,13.38
2019-05-03T09:41:59.418Z,13.48
2019-05-03T09:43:00.431Z,13.55
2019-05-03T09:44:01.557Z,12.65
2019-05-03T09:45:04.939Z,14.07
2019-05-03T09:46:06.105Z,16.40
2019-05-03T09:47:07.130Z,16.00
2019-05-03T09:48:08.140Z,16.00
2019-05-03T09:49:13.412Z,18.98
2019-05-03T09:50:12.532Z,16.10
2019-05-03T09:51:14.705Z,16.85
2019-05-03T09:52:16.325Z,19.05
2019-05-03T09:53:19.369Z,17.57
2019-05-03T09:54:22.583Z,11.95
2019-05-03T09:55:25.529Z,15.55
2019-05-03T09:56:55.019Z,16.15
2019-05-03T09:57:47.837Z,17.45
2019-05-03T09:58:48.862Z,12.58
2019-05-03T09:59:57.192Z,13.72
2019-05-03T10:00:55.452Z,14.93
2019-05-03T10:01:56.756Z,15.03
2019-05-03T10:02:57.776Z,14.13
2019-05-03T10:03:58.812Z,15.32
2019-05-03T10:04:59.843Z,15.38
2019-05-03T10:06:01.224Z,14.00
2019-05-03T10:07:02.437Z,14.30
2019-05-03T10:08:05.182Z,13.20
2019-05-03T10:09:06.510Z,14.05
2019-05-03T10:10:07.928Z,13.13
2019-05-03T10:11:08.987Z,12.00
2019-05-03T10:12:16.156Z,11.05
2019-05-03T10:13:23.416Z,11.30
2019-05-03T10:14:20.428Z,14.15
2019-05-03T10:15:40.682Z,12.50
2019-05-03T10:16:49.522Z,12.40
2019-05-03T10:17:52.452Z,10.60
2019-05-03T10:18:55.230Z,11.30
2019-05-03T10:19:56.403Z,12.03
2019-05-03T10:20:57.434Z,11.28
2019-05-03T10:21:58.445Z,10.30
2019-05-03T10:23:02.083Z,10.32
2019-05-03T10:24:03.093Z,10.78
2019-05-03T10:25:06.210Z,11.25
2019-05-03T10:26:08.559Z,11.85
2019-05-03T10:27:09.766Z,11.22
2019-05-03T10:28:10.839Z,12.28
2019-05-03T10:29:12.015Z,12.37
2019-05-03T10:30:25.464Z,11.03
2019-05-03T10:31:28.413Z,11.78
2019-05-03T10:32:31.336Z,9.95
2019-05-03T10:33:35.617Z,12.58
2019-05-03T10:34:36.974Z,9.00
2019-05-03T10:35:38.088Z,12.60
2019-05-03T10:36:39.201Z,8.25
2019-05-03T10:37:40.225Z,10.55
2019-05-03T10:38:41.261Z,10.90
2019-05-03T10:39:42.277Z,10.18
2019-05-03T10:40:45.254Z,10.28
2019-05-03T10:41:46.243Z,10.23
2019-05-03T10:42:47.263Z,11.03
2019-05-03T10:43:48.271Z,9.53
2019-05-03T10:44:49.284Z,11.93
2019-05-03T10:45:50.301Z,9.23
2019-05-03T10:46:51.319Z,9.78
2019-05-03T10:47:52.344Z,8.50
2019-05-03T10:48:55.607Z,11.55
2019-05-03T10:49:56.299Z,7.80
2019-05-03T10:50:57.325Z,9.88
2019-05-03T10:52:00.261Z,8.08
2019-05-03T10:53:08.985Z,7.08
2019-05-03T10:54:10.198Z,11.28
2019-05-03T10:55:11.521Z,9.73
2019-05-03T10:56:22.582Z,7.45
2019-05-03T10:57:24.846Z,13.88
2019-05-03T10:58:26.105Z,11.73
2019-05-03T10:59:27.125Z,8.58
2019-05-03T11:00:50.269Z,10.75
2019-05-03T11:01:36.006Z,9.00
2019-05-03T11:02:38.970Z,13.90
2019-05-03T11:03:39.991Z,12.43
2019-05-03T11:04:43.551Z,11.55
2019-05-03T11:05:45.400Z,9.55
2019-05-03T11:06:46.577Z,10.23
2019-05-03T11:07:47.605Z,14.68
2019-05-03T11:08:48.621Z,10.18
2019-05-03T11:09:52.496Z,12.70
2019-05-03T11:10:52.552Z,10.85
2019-05-03T11:11:55.511Z,10.95
2019-05-03T11:12:56.740Z,12.82
2019-05-03T11:13:57.756Z,10.25
2019-05-03T11:14:58.791Z,10.18
2019-05-03T11:15:59.801Z,11.83
2019-05-03T11:17:00.825Z,11.20
2019-05-03T11:18:01.957Z,11.18
2019-05-03T11:19:05.251Z,10.50
2019-05-03T11:20:06.388Z,7.95
2019-05-03T11:21:07.414Z,13.53
2019-05-03T11:22:08.444Z,10.55
2019-05-03T11:23:09.473Z,11.50
2019-05-03T11:24:10.478Z,9.80
2019-05-03T11:25:11.592Z,14.60
2019-05-03T11:26:12.824Z,11.38
2019-05-03T11:27:21.761Z,10.05
2019-05-03T11:28:25.026Z,10.13
2019-05-03T11:29:26.213Z,11.95
2019-05-03T11:30:27.232Z,11.78
2019-05-03T11:31:46.519Z,15.08
2019-05-03T11:32:55.724Z,10.50
2019-05-03T11:33:58.817Z,10.00
2019-05-03T11:35:07.662Z,11.85
2019-05-03T11:36:14.974Z,12.68
2019-05-03T11:37:20.580Z,11.83
2019-05-03T11:38:25.355Z,12.07
2019-05-03T11:39:26.413Z,11.40
2019-05-03T11:40:27.440Z,11.20
2019-05-03T11:41:32.891Z,9.98
2019-05-03T11:42:35.209Z,13.28
2019-05-03T11:43:36.266Z,12.55
2019-05-03T11:44:37.558Z,11.80
2019-05-03T11:45:38.565Z,8.20
2019-05-03T11:46:39.585Z,10.78
2019-05-03T11:47:40.614Z,10.65
2019-05-03T11:48:41.637Z,9.75
2019-05-03T11:49:42.649Z,8.90
2019-05-03T11:50:45.352Z,9.58
2019-05-03T11:51:46.512Z,12.33
2019-05-03T11:52:47.541Z,11.65
2019-05-03T11:53:48.549Z,10.53
2019-05-03T11:54:49.577Z,11.75
2019-05-03T11:55:50.580Z,12.58
2019-05-03T11:56:51.929Z,14.07
2019-05-03T11:57:52.948Z,12.10
2019-05-03T11:58:55.016Z,11.30
2019-05-03T11:59:56.170Z,9.88
2019-05-03T12:01:12.960Z,14.60
2019-05-03T12:02:06.769Z,12.25
2019-05-03T12:03:12.236Z,11.63
2019-05-03T12:04:15.290Z,9.73
2019-05-03T12:05:20.752Z,9.15
2019-05-03T12:06:21.780Z,9.88
2019-05-03T12:07:38.829Z,8.33
2019-05-03T12:08:34.705Z,10.65
2019-05-03T12:09:35.904Z,10.58
2019-05-03T12:10:52.520Z,11.15
2019-05-03T12:11:40.292Z,10.98
2019-05-03T12:12:44.556Z,8.70
2019-05-03T12:13:45.913Z,9.75
2019-05-03T12:14:46.957Z,9.58
2019-05-03T12:15:47.972Z,12.43
2019-05-03T12:18:01.929Z,9.73
2019-05-03T12:19:16.148Z,13.10
2019-05-03T12:20:08.115Z,8.40
2019-05-03T12:21:10.807Z,8.90
2019-05-03T12:22:12.920Z,9.53
2019-05-03T12:23:16.582Z,8.70
2019-05-03T12:24:18.134Z,8.60
2019-05-03T12:25:20.306Z,9.40
2019-05-03T12:26:22.308Z,10.08
2019-05-03T12:27:24.417Z,11.20
2019-05-03T12:28:25.819Z,9.13
2019-05-03T12:29:26.997Z,10.50
2019-05-03T12:30:28.113Z,9.35
2019-05-03T12:31:37.073Z,10.32
2019-05-03T12:32:32.085Z,9.85
2019-05-03T12:33:35.347Z,10.23
2019-05-03T12:34:36.036Z,9.78
2019-05-03T12:35:37.044Z,10.75
2019-05-03T12:36:39.162Z,15.83
2019-05-03T12:37:40.481Z,7.62
2019-05-03T12:38:41.504Z,11.90
2019-05-03T12:39:42.521Z,8.88
2019-05-03T12:40:45.422Z,11.80
2019-05-03T12:41:48.114Z,9.25
2019-05-03T12:42:49.279Z,7.83
2019-05-03T12:43:50.301Z,9.95
2019-05-03T12:44:51.313Z,8.28
2019-05-03T12:45:52.334Z,12.40
2019-05-03T12:46:53.353Z,8.53
2019-05-03T12:47:55.953Z,9.75
2019-05-03T12:48:57.209Z,10.82
2019-05-03T12:49:58.233Z,13.80
2019-05-03T12:50:59.482Z,10.23
2019-05-03T12:52:00.864Z,9.33
2019-05-03T12:53:01.897Z,10.90
2019-05-03T12:54:04.884Z,8.28
2019-05-03T12:55:06.246Z,8.65
2019-05-03T12:56:11.439Z,10.50
2019-05-03T12:57:10.213Z,9.03
2019-05-03T12:58:11.231Z,9.20
2019-05-03T12:59:20.352Z,11.48
2019-05-03T13:00:40.350Z,10.50
2019-05-03T13:01:49.297Z,9.28
2019-05-03T13:02:52.234Z,10.05
2019-05-03T13:03:55.470Z,11.00
2019-05-03T13:04:56.588Z,10.50
2019-05-03T13:05:57.604Z,10.23
2019-05-03T13:07:18.850Z,8.83
2019-05-03T13:08:35.414Z,9.03
2019-05-03T13:09:36.600Z,6.80
2019-05-03T13:10:37.621Z,7.78
2019-05-03T13:11:51.758Z,9.63
2019-05-03T13:12:52.792Z,8.13
2019-05-03T13:13:46.673Z,10.63
2019-05-03T13:14:47.695Z,8.90
2019-05-03T13:15:48.720Z,9.23
2019-05-03T13:16:49.746Z,9.73
2019-05-03T13:17:50.760Z,8.60
2019-05-03T13:18:51.781Z,10.68
2019-05-03T13:19:54.609Z,7.25
2019-05-03T13:20:55.946Z,9.40
2019-05-03T13:21:57.045Z,10.98
2019-05-03T13:22:58.061Z,7.10
2019-05-03T13:23:59.093Z,11.35
2019-05-03T13:25:00.116Z,7.90
2019-05-03T13:26:01.147Z,12.82
2019-05-03T13:27:02.268Z,8.83
2019-05-03T13:28:05.370Z,11.50
2019-05-03T13:29:06.234Z,10.58
2019-05-03T13:30:08.766Z,7.70
2019-05-03T13:31:16.192Z,13.18
2019-05-03T13:32:17.399Z,10.70
2019-05-03T13:33:18.418Z,8.60
2019-05-03T13:34:19.476Z,10.15
2019-05-03T13:35:20.492Z,9.05
2019-05-03T13:36:21.512Z,12.10